METAR Data
IDs: Format: Raw Decoded Include TAF

Data at: 1426 UTC 21 Apr 2021

METAR for:KALO (Waterloo Rgnl, IA, US)
Text:KALO 211354Z VRB06KT 10SM CLR 03/M07 A3018 RMK AO2 SLP226 T00281067
Temperature: 2.8°C ( 37°F)
Dewpoint: -6.7°C ( 20°F) [RH = 50%]
Pressure (altimeter):30.18 inches Hg (1022.1 mb) [Sea level pressure: 1022.6 mb]
Winds:variable direction winds at 7 MPH (6 knots; 3.1 m/s)
Visibility:10 or more sm (16+ km)
Ceiling:at least 12,000 feet AGL
Clouds:sky clear below 12,000 feet AGL